Time;durP1;ratioP1;P1;durP2;ratioP2;P2;SDS_P1;SDS_P2;PMS_P1;PMS_P2;Temp;Humidity;BMP_temperature;BMP_pressure;BME280_temperature;BME280_humidity;BME280_pressure;Samples;Min_cycle;Max_cycle;Signal;HPM_P1;HPM_P2
2022/04/05 00:01:13;;;;;;;11.15;7.57;;;4.20;65.70;;;;;;4957292;29;20086;-79
2022/04/05 00:03:38;;;;;;;12.30;7.20;;;4.10;65.80;;;;;;4957294;29;20023;-79
2022/04/05 00:06:04;;;;;;;12.40;7.68;;;4.20;65.70;;;;;;4957219;29;20480;-79
2022/04/05 00:08:29;;;;;;;13.45;6.80;;;4.10;65.80;;;;;;4957288;29;20480;-79
2022/04/05 00:10:55;;;;;;;11.65;7.20;;;4.10;66.10;;;;;;4956652;29;20353;-78
2022/04/05 00:13:20;;;;;;;10.30;7.10;;;4.10;66.20;;;;;;4956601;29;20027;-79
2022/04/05 00:15:46;;;;;;;11.57;7.20;;;4.10;66.40;;;;;;4956469;29;20336;-79
2022/04/05 00:18:12;;;;;;;11.95;7.05;;;4.10;66.40;;;;;;4956687;29;20136;-78
2022/04/05 00:20:38;;;;;;;9.93;6.78;;;4.10;66.70;;;;;;4956668;29;20038;-77
2022/04/05 00:23:03;;;;;;;10.05;7.18;;;4.10;67.10;;;;;;4956479;29;20086;-78
2022/04/05 00:25:29;;;;;;;12.10;7.82;;;4.10;67.20;;;;;;4956341;29;20023;-77
2022/04/05 00:27:55;;;;;;;11.48;7.63;;;4.10;67.40;;;;;;4955844;29;20084;-78
2022/04/05 00:30:21;;;;;;;12.55;7.30;;;4.10;67.30;;;;;;4956543;29;20027;-78
2022/04/05 00:32:47;;;;;;;12.55;6.78;;;4.10;67.80;;;;;;4956321;29;20027;-77
2022/04/05 00:35:13;;;;;;;12.48;8.10;;;4.10;67.50;;;;;;4955339;28;20029;-78
2022/04/05 00:37:38;;;;;;;12.55;8.27;;;4.10;67.10;;;;;;4973713;29;20090;-70
2022/04/05 00:40:06;;;;;;;13.65;7.05;;;4.20;67.30;;;;;;4966174;29;20461;-75
2022/04/05 00:42:33;;;;;;;10.88;7.65;;;4.10;67.80;;;;;;4957378;29;20090;-76
2022/04/05 00:44:58;;;;;;;13.25;7.50;;;4.10;67.70;;;;;;4955995;29;20027;-73
2022/04/05 00:47:24;;;;;;;12.55;7.93;;;4.20;67.60;;;;;;4955986;29;20511;-73
2022/04/05 00:49:53;;;;;;;11.68;7.18;;;4.20;67.40;;;;;;4956121;28;20031;-74
2022/04/05 00:52:20;;;;;;;13.32;7.93;;;4.20;67.40;;;;;;4938833;29;20066;-74
2022/04/05 00:54:47;;;;;;;13.32;7.55;;;4.20;67.80;;;;;;4955505;29;20038;-73
2022/04/05 00:57:16;;;;;;;10.18;7.32;;;4.20;67.80;;;;;;4955714;29;20106;-73
2022/04/05 00:59:45;;;;;;;10.50;7.00;;;4.20;67.80;;;;;;4955523;29;20034;-73
2022/04/05 01:02:13;;;;;;;11.30;7.45;;;4.30;67.60;;;;;;4955524;29;20126;-73
2022/04/05 01:04:42;;;;;;;12.32;7.28;;;4.30;67.50;;;;;;4955549;29;20515;-73
2022/04/05 01:07:13;;;;;;;10.38;6.80;;;4.40;66.70;;;;;;4955463;29;20027;-72
2022/04/05 01:09:39;;;;;;;8.52;6.97;;;4.40;66.70;;;;;;4955293;29;20397;-73
2022/04/05 01:12:07;;;;;;;12.07;7.75;;;4.40;66.80;;;;;;4955149;29;20024;-74
2022/04/05 01:14:32;;;;;;;14.27;7.53;;;4.40;66.70;;;;;;4955216;29;20102;-73
2022/04/05 01:16:58;;;;;;;11.10;7.38;;;4.40;66.90;;;;;;4955195;29;20082;-73
2022/04/05 01:19:24;;;;;;;11.05;7.18;;;4.40;66.80;;;;;;4938026;29;20087;-74
2022/04/05 01:21:50;;;;;;;10.93;7.35;;;4.50;67.20;;;;;;4955096;29;20039;-73
2022/04/05 01:24:15;;;;;;;13.00;7.25;;;4.40;67.40;;;;;;4955154;29;20027;-73
2022/04/05 01:26:49;;;;;;;11.30;7.63;;;4.50;67.40;;;;;;4955145;29;20039;-73
2022/04/05 01:29:17;;;;;;;9.25;6.70;;;4.50;67.10;;;;;;4955051;29;20090;-73
2022/04/05 01:31:45;;;;;;;11.85;7.20;;;4.50;67.10;;;;;;4937878;29;20162;-74
2022/04/05 01:34:12;;;;;;;12.85;7.97;;;4.40;67.70;;;;;;4954893;29;20040;-73
2022/04/05 01:36:43;;;;;;;10.95;7.43;;;4.40;68.20;;;;;;4954978;29;20035;-73
2022/04/05 01:39:10;;;;;;;9.65;7.13;;;4.40;68.20;;;;;;4955098;29;20031;-73
2022/04/05 01:41:36;;;;;;;10.18;6.95;;;4.40;68.10;;;;;;4954591;29;20432;-73
2022/04/05 01:44:02;;;;;;;11.07;7.22;;;4.50;68.20;;;;;;4954933;29;20059;-73
2022/04/05 01:46:27;;;;;;;12.52;6.88;;;4.50;67.80;;;;;;4954599;28;20038;-72
2022/04/05 01:48:53;;;;;;;14.05;7.10;;;4.50;67.50;;;;;;4954720;29;20028;-72
2022/04/05 01:51:19;;;;;;;13.40;7.15;;;4.50;67.30;;;;;;4954886;29;20038;-73
2022/04/05 01:53:44;;;;;;;11.18;7.18;;;4.50;67.40;;;;;;4954839;29;20380;-72
2022/04/05 01:56:10;;;;;;;8.63;6.30;;;4.50;67.40;;;;;;4937504;29;20468;-72
2022/04/05 01:58:36;;;;;;;9.50;7.13;;;4.50;67.60;;;;;;4954763;29;20031;-72
2022/04/05 02:01:03;;;;;;;10.82;7.78;;;4.60;67.70;;;;;;4954703;29;20035;-71
2022/04/05 02:03:29;;;;;;;10.63;7.28;;;4.50;67.10;;;;;;4954566;29;20031;-71
2022/04/05 02:05:55;;;;;;;10.35;6.72;;;4.50;67.20;;;;;;4954562;29;20387;-76
2022/04/05 02:08:20;;;;;;;11.90;7.18;;;4.60;67.20;;;;;;4954661;29;20102;-77
2022/04/05 02:10:46;;;;;;;8.57;6.07;;;4.70;67.30;;;;;;4954610;29;20027;-77
2022/04/05 02:13:11;;;;;;;11.65;7.53;;;4.70;67.30;;;;;;4954552;29;20503;-77
2022/04/05 02:15:37;;;;;;;9.00;6.72;;;4.80;67.20;;;;;;4954364;29;20432;-77
2022/04/05 02:18:02;;;;;;;8.80;6.45;;;4.80;66.60;;;;;;4954634;29;20038;-78
2022/04/05 02:20:28;;;;;;;9.30;6.10;;;4.80;66.10;;;;;;4954420;29;20481;-78
2022/04/05 02:22:53;;;;;;;10.95;6.45;;;4.80;66.10;;;;;;4960861;29;20035;-76
2022/04/05 02:25:19;;;;;;;13.82;7.07;;;4.80;65.90;;;;;;4954930;29;20029;-78
2022/04/05 02:27:45;;;;;;;10.05;6.38;;;4.90;65.80;;;;;;4937423;29;20031;-77
2022/04/05 02:30:11;;;;;;;12.35;6.30;;;4.90;65.90;;;;;;4954138;29;20111;-77
2022/04/05 02:32:37;;;;;;;8.73;6.88;;;4.90;65.60;;;;;;4954502;29;20055;-77
2022/04/05 02:35:03;;;;;;;12.82;7.55;;;4.90;65.20;;;;;;4954343;29;20570;-77
2022/04/05 02:37:28;;;;;;;13.15;7.72;;;4.90;65.30;;;;;;4954432;29;20027;-76
2022/04/05 02:39:54;;;;;;;11.00;6.88;;;4.80;65.40;;;;;;4954613;29;20115;-71
2022/04/05 02:42:19;;;;;;;10.80;8.05;;;4.70;66.10;;;;;;4954747;29;20094;-72
2022/04/05 02:44:46;;;;;;;13.63;7.15;;;4.70;66.10;;;;;;4954803;29;20023;-74
2022/04/05 02:47:12;;;;;;;12.95;7.82;;;4.60;66.50;;;;;;4954785;29;20408;-74
2022/04/05 02:49:37;;;;;;;13.48;7.47;;;4.60;66.50;;;;;;4954709;29;20015;-79
2022/04/05 02:52:04;;;;;;;12.48;7.55;;;4.50;66.60;;;;;;4954694;29;20491;-78
2022/04/05 02:54:30;;;;;;;10.98;7.55;;;4.60;67.00;;;;;;4937470;29;20400;-78
2022/04/05 02:56:55;;;;;;;15.82;7.72;;;4.60;66.90;;;;;;4954779;29;20102;-73
2022/04/05 02:59:21;;;;;;;12.25;7.85;;;4.60;66.60;;;;;;4956237;28;20119;-73
2022/04/05 03:01:46;;;;;;;11.55;7.43;;;4.60;66.70;;;;;;4958213;29;20484;-78
2022/04/05 03:04:12;;;;;;;10.55;6.93;;;4.50;66.70;;;;;;4958244;29;20046;-76
2022/04/05 03:06:37;;;;;;;10.80;6.60;;;4.60;66.30;;;;;;4958188;29;20031;-77
2022/04/05 03:09:03;;;;;;;11.85;7.35;;;4.60;66.20;;;;;;4958212;29;20031;-78
2022/04/05 03:11:29;;;;;;;12.70;7.20;;;4.50;66.70;;;;;;4958019;29;20081;-73
2022/04/05 03:13:55;;;;;;;15.10;7.75;;;4.50;66.60;;;;;;4958142;29;20070;-75
2022/04/05 03:16:20;;;;;;;11.50;7.18;;;4.50;66.90;;;;;;4957905;29;20047;-73
2022/04/05 03:18:47;;;;;;;12.15;7.28;;;4.50;66.50;;;;;;4958049;29;20422;-73
2022/04/05 03:21:13;;;;;;;11.88;6.97;;;4.50;66.70;;;;;;4957787;29;20032;-73
2022/04/05 03:23:39;;;;;;;13.05;7.38;;;4.60;66.30;;;;;;4958041;29;20062;-72
2022/04/05 03:26:05;;;;;;;11.55;6.90;;;4.50;66.70;;;;;;4957680;29;20023;-73
2022/04/05 03:28:31;;;;;;;12.70;8.13;;;4.50;66.40;;;;;;4962137;29;20082;-72
2022/04/05 03:30:56;;;;;;;10.85;7.50;;;4.50;66.40;;;;;;4956436;29;20030;-73
2022/04/05 03:33:22;;;;;;;12.38;7.25;;;4.40;66.70;;;;;;4959332;29;20468;-73
2022/04/05 03:35:47;;;;;;;10.63;7.57;;;4.50;66.80;;;;;;4940369;29;20054;-75
2022/04/05 03:38:13;;;;;;;14.93;7.78;;;4.50;66.50;;;;;;4957601;29;20070;-74
2022/04/05 03:40:39;;;;;;;11.48;7.22;;;4.50;66.60;;;;;;4957253;29;20031;-73
2022/04/05 03:43:07;;;;;;;10.32;7.00;;;4.50;66.60;;;;;;4957429;29;20113;-75
2022/04/05 03:45:33;;;;;;;13.68;7.50;;;4.50;66.70;;;;;;4957355;29;20054;-74
2022/04/05 03:47:58;;;;;;;11.93;7.35;;;4.50;67.00;;;;;;4957226;29;20031;-74
2022/04/05 03:50:24;;;;;;;10.98;7.70;;;4.50;66.70;;;;;;4957315;29;20117;-77
2022/04/05 03:52:50;;;;;;;14.05;7.85;;;4.50;66.70;;;;;;4957066;29;20027;-73
2022/04/05 03:55:15;;;;;;;11.52;7.30;;;4.50;66.80;;;;;;4957340;29;20031;-77
2022/04/05 03:57:41;;;;;;;12.32;7.60;;;4.50;66.60;;;;;;4957303;29;20023;-78
2022/04/05 04:00:07;;;;;;;11.20;6.63;;;4.50;66.80;;;;;;4957354;29;20031;-78
2022/04/05 04:02:35;;;;;;;13.85;7.05;;;4.50;66.40;;;;;;4957135;29;20054;-78
2022/04/05 04:05:01;;;;;;;9.45;6.93;;;4.50;66.70;;;;;;4957246;29;20456;-76
2022/04/05 04:07:26;;;;;;;10.60;6.82;;;4.60;66.40;;;;;;4957199;29;20108;-77
2022/04/05 04:09:52;;;;;;;10.85;6.80;;;4.50;66.30;;;;;;4956768;28;20035;-74
2022/04/05 04:12:17;;;;;;;10.80;6.60;;;4.60;66.50;;;;;;4957061;29;20030;-76
2022/04/05 04:14:43;;;;;;;10.43;7.45;;;4.60;66.50;;;;;;4956893;29;20042;-76
2022/04/05 04:17:08;;;;;;;13.57;7.53;;;4.50;66.20;;;;;;4938878;29;20054;-76
2022/04/05 04:19:34;;;;;;;11.60;6.72;;;4.50;66.80;;;;;;4956890;29;20027;-77
2022/04/05 04:22:00;;;;;;;10.38;6.50;;;4.50;66.80;;;;;;4956730;29;20054;-76
2022/04/05 04:24:26;;;;;;;10.88;6.80;;;4.50;66.90;;;;;;4956701;29;20065;-74
2022/04/05 04:26:52;;;;;;;10.50;7.30;;;4.50;66.90;;;;;;4956524;29;20091;-73
2022/04/05 04:29:17;;;;;;;13.00;7.03;;;4.50;66.80;;;;;;4956530;29;20024;-74
2022/04/05 04:31:43;;;;;;;12.25;6.72;;;4.50;67.00;;;;;;4956585;29;20028;-73
2022/04/05 04:34:08;;;;;;;12.45;6.88;;;4.50;66.50;;;;;;4956546;29;20019;-73
2022/04/05 04:36:34;;;;;;;12.85;7.00;;;4.50;66.40;;;;;;4956544;29;20037;-77
2022/04/05 04:38:59;;;;;;;10.88;6.72;;;4.50;66.70;;;;;;4956468;29;20428;-72
2022/04/05 04:41:25;;;;;;;11.07;6.60;;;4.50;66.90;;;;;;4956521;29;20031;-74
2022/04/05 04:43:51;;;;;;;14.93;7.38;;;4.50;67.20;;;;;;4956361;29;20468;-73
2022/04/05 04:46:17;;;;;;;9.85;5.70;;;4.50;67.10;;;;;;4956339;29;20047;-74
2022/04/05 04:48:43;;;;;;;10.35;6.22;;;4.50;67.00;;;;;;4956326;29;20062;-75
2022/04/05 04:51:09;;;;;;;11.90;6.75;;;4.50;67.00;;;;;;4956166;29;20027;-75
2022/04/05 04:53:35;;;;;;;11.77;6.30;;;4.50;67.10;;;;;;4938782;29;20428;-74
2022/04/05 04:56:00;;;;;;;14.18;6.68;;;4.50;67.00;;;;;;4956278;29;20028;-75
2022/04/05 04:58:26;;;;;;;13.30;6.50;;;4.60;67.20;;;;;;4956236;29;20087;-78
2022/04/05 05:00:52;;;;;;;12.90;7.05;;;4.50;66.90;;;;;;4955961;29;20042;-77
2022/04/05 05:03:18;;;;;;;9.90;6.47;;;4.60;67.20;;;;;;4955968;29;20023;-78
2022/04/05 05:05:44;;;;;;;12.35;6.40;;;4.60;67.00;;;;;;4955900;29;20024;-78
2022/04/05 05:08:10;;;;;;;10.02;6.38;;;4.60;67.00;;;;;;4955826;29;20095;-79
2022/04/05 05:10:36;;;;;;;18.50;7.75;;;4.60;67.20;;;;;;4955684;29;20388;-79
2022/04/05 05:13:02;;;;;;;11.48;7.28;;;4.70;67.60;;;;;;4955871;29;20110;-79
2022/04/05 05:15:27;;;;;;;13.23;7.05;;;4.80;66.90;;;;;;4955960;29;20074;-78
2022/04/05 05:17:55;;;;;;;11.55;7.45;;;4.80;66.50;;;;;;4955389;29;20476;-78
2022/04/05 05:20:22;;;;;;;9.85;6.55;;;4.80;66.60;;;;;;4955682;29;20019;-78
2022/04/05 05:22:48;;;;;;;9.27;5.93;;;4.80;66.60;;;;;;4954938;28;20047;-78
2022/04/05 05:25:14;;;;;;;9.23;5.97;;;4.90;67.00;;;;;;4938187;29;20034;-78
2022/04/05 05:27:39;;;;;;;12.18;5.85;;;4.90;66.40;;;;;;4955475;29;20356;-79
2022/04/05 05:30:07;;;;;;;13.80;6.57;;;4.90;66.70;;;;;;4955335;29;20479;-79
2022/04/05 05:32:40;;;;;;;12.05;6.20;;;4.80;67.10;;;;;;4955280;29;20034;-79
2022/04/05 05:35:06;;;;;;;9.27;5.53;;;4.80;67.40;;;;;;4955364;29;20531;-78
2022/04/05 05:37:31;;;;;;;11.50;6.47;;;4.80;67.80;;;;;;4955147;29;20035;-78
2022/04/05 05:39:57;;;;;;;10.25;6.30;;;4.80;67.50;;;;;;4955228;29;20031;-78
2022/04/05 05:42:22;;;;;;;10.90;6.57;;;4.70;68.00;;;;;;4955291;29;20122;-78
2022/04/05 05:44:48;;;;;;;9.50;5.78;;;4.70;67.80;;;;;;4955287;29;20035;-77
2022/04/05 05:47:13;;;;;;;11.93;6.22;;;4.70;68.20;;;;;;4955415;29;20089;-77
2022/04/05 05:49:39;;;;;;;10.90;6.10;;;4.70;68.70;;;;;;4955126;29;20027;-77
2022/04/05 05:52:05;;;;;;;9.63;6.22;;;4.60;68.90;;;;;;4954810;29;20034;-77
2022/04/05 05:54:30;;;;;;;8.70;6.07;;;4.70;69.10;;;;;;4955142;29;20023;-79
2022/04/05 05:56:56;;;;;;;10.07;6.10;;;4.60;68.90;;;;;;4954812;29;20027;-79
2022/04/05 05:59:22;;;;;;;9.50;6.22;;;4.70;69.30;;;;;;4954980;29;20034;-78
2022/04/05 06:01:48;;;;;;;9.88;6.13;;;4.70;69.50;;;;;;4954737;29;20476;-77
2022/04/05 06:04:14;;;;;;;12.68;5.93;;;4.80;69.20;;;;;;4937185;29;20082;-79
2022/04/05 06:06:39;;;;;;;8.93;5.35;;;4.80;69.40;;;;;;4937985;29;20550;-79
2022/04/05 06:09:06;;;;;;;11.60;5.38;;;4.70;69.60;;;;;;4954910;29;20035;-80
2022/04/05 06:11:32;;;;;;;10.10;5.70;;;4.80;69.40;;;;;;4954919;29;20110;-79
2022/04/05 06:13:57;;;;;;;13.90;6.45;;;4.80;69.50;;;;;;4954907;29;20078;-78
2022/04/05 06:16:23;;;;;;;10.43;6.20;;;4.80;69.20;;;;;;4954941;29;20052;-78
2022/04/05 06:18:48;;;;;;;10.60;6.32;;;4.80;69.40;;;;;;4954765;29;20502;-78
2022/04/05 06:21:15;;;;;;;9.43;5.55;;;4.80;70.30;;;;;;4954675;29;20051;-78
2022/04/05 06:23:40;;;;;;;8.57;5.32;;;4.80;69.70;;;;;;4954702;29;20126;-78
2022/04/05 06:26:06;;;;;;;13.10;5.75;;;4.90;70.00;;;;;;4954727;29;20520;-78
2022/04/05 06:28:32;;;;;;;9.52;6.03;;;4.90;69.40;;;;;;4954484;29;20042;-78
2022/04/05 06:30:57;;;;;;;7.93;5.32;;;4.90;69.00;;;;;;4954552;29;20038;-78
2022/04/05 06:33:23;;;;;;;9.75;5.90;;;5.00;69.00;;;;;;4956257;28;20042;-76
2022/04/05 06:35:51;;;;;;;9.93;5.95;;;5.00;69.10;;;;;;4958974;29;20032;-78
2022/04/05 06:38:17;;;;;;;10.18;6.07;;;5.10;69.40;;;;;;4959068;29;20034;-74
2022/04/05 06:40:43;;;;;;;7.28;5.15;;;5.10;69.40;;;;;;4958851;29;20019;-74
2022/04/05 06:43:10;;;;;;;11.05;5.97;;;5.20;69.40;;;;;;4958993;29;20054;-78
2022/04/05 06:45:36;;;;;;;10.77;5.60;;;5.30;69.40;;;;;;4958649;29;20027;-77
2022/04/05 06:48:02;;;;;;;12.25;4.97;;;5.30;68.90;;;;;;4958371;29;20027;-79
2022/04/05 06:50:28;;;;;;;9.05;5.07;;;5.40;69.30;;;;;;4958655;29;20428;-79
2022/04/05 06:52:59;;;;;;;8.73;4.80;;;5.40;69.00;;;;;;4958882;29;20035;-74
2022/04/05 06:55:25;;;;;;;8.23;4.90;;;5.40;69.10;;;;;;4941757;29;20027;-76
2022/04/05 06:57:52;;;;;;;7.68;4.88;;;5.50;69.30;;;;;;4958523;29;20122;-78
2022/04/05 07:00:19;;;;;;;8.45;4.82;;;5.60;68.50;;;;;;4958515;29;20027;-78
2022/04/05 07:02:45;;;;;;;9.00;5.13;;;5.60;68.90;;;;;;4958518;29;20031;-72
2022/04/05 07:05:12;;;;;;;10.50;4.90;;;5.70;68.90;;;;;;4958614;29;20034;-75
2022/04/05 07:07:38;;;;;;;7.70;4.45;;;5.70;68.60;;;;;;4958335;29;20050;-78
2022/04/05 07:10:05;;;;;;;7.40;4.47;;;5.70;68.60;;;;;;4958412;29;20023;-77
2022/04/05 07:12:32;;;;;;;11.23;4.85;;;5.80;68.80;;;;;;4958778;29;20030;-74
2022/04/05 07:14:57;;;;;;;11.15;5.55;;;5.90;68.90;;;;;;4958329;29;20116;-73
2022/04/05 07:17:23;;;;;;;8.80;4.72;;;6.00;69.70;;;;;;4958078;29;20048;-75
2022/04/05 07:19:49;;;;;;;7.57;5.03;;;6.00;68.20;;;;;;4940503;29;20036;-75
2022/04/05 07:22:14;;;;;;;7.43;5.18;;;5.90;68.50;;;;;;4940418;29;20035;-76
2022/04/05 07:24:40;;;;;;;9.25;4.68;;;5.90;68.40;;;;;;4940546;29;20100;-77
2022/04/05 07:27:05;;;;;;;7.95;4.68;;;5.90;68.70;;;;;;4957953;29;20535;-79
2022/04/05 07:29:31;;;;;;;9.70;5.13;;;5.80;69.20;;;;;;4957955;29;20375;-74
2022/04/05 07:31:57;;;;;;;8.00;4.72;;;6.00;69.70;;;;;;4957967;29;20054;-74
2022/04/05 07:34:22;;;;;;;8.27;4.63;;;6.10;69.20;;;;;;4957945;29;20035;-74
2022/04/05 07:36:48;;;;;;;9.70;4.43;;;6.20;68.10;;;;;;4957700;29;20038;-74
2022/04/05 07:39:14;;;;;;;7.63;4.68;;;6.40;68.40;;;;;;4957667;29;20376;-73
2022/04/05 07:41:39;;;;;;;7.97;4.60;;;6.60;67.40;;;;;;4940677;29;20047;-76
2022/04/05 07:44:05;;;;;;;7.68;4.57;;;6.70;67.00;;;;;;4957257;28;20546;-77
2022/04/05 07:46:31;;;;;;;8.30;3.97;;;6.70;66.40;;;;;;4957397;29;20023;-78
2022/04/05 07:48:56;;;;;;;11.25;5.15;;;6.70;66.80;;;;;;4957538;29;20027;-76
2022/04/05 07:51:22;;;;;;;6.85;4.50;;;6.70;66.80;;;;;;4957416;29;20495;-77
2022/04/05 07:53:48;;;;;;;7.55;4.50;;;6.60;67.20;;;;;;4957439;29;20035;-77
2022/04/05 07:56:14;;;;;;;10.32;5.10;;;6.60;67.90;;;;;;4957430;29;20023;-76
2022/04/05 07:58:40;;;;;;;7.95;4.70;;;6.60;67.40;;;;;;4957360;29;20436;-77
2022/04/05 08:01:08;;;;;;;10.55;4.72;;;6.70;67.80;;;;;;4957009;29;20027;-77
2022/04/05 08:03:34;;;;;;;8.20;5.03;;;6.90;67.30;;;;;;4957006;29;20099;-77
2022/04/05 08:06:00;;;;;;;5.65;3.97;;;7.00;66.60;;;;;;4957009;29;20027;-78
2022/04/05 08:08:26;;;;;;;7.63;4.30;;;7.00;66.60;;;;;;4957192;29;20086;-79
2022/04/05 08:10:51;;;;;;;10.43;5.00;;;7.00;66.70;;;;;;4956804;29;20027;-78
2022/04/05 08:13:17;;;;;;;7.65;3.97;;;7.20;66.40;;;;;;4957117;29;20034;-79
2022/04/05 08:15:43;;;;;;;5.60;4.03;;;7.20;66.20;;;;;;4956385;29;20106;-77
2022/04/05 08:18:09;;;;;;;7.30;3.80;;;7.30;65.80;;;;;;4956295;29;20093;-78
2022/04/05 08:20:36;;;;;;;7.80;4.43;;;7.40;65.60;;;;;;4955737;29;20063;-74
2022/04/05 08:23:03;;;;;;;9.68;4.70;;;7.20;66.70;;;;;;4956053;29;20045;-73
2022/04/05 08:25:28;;;;;;;6.72;4.32;;;7.10;66.90;;;;;;4956630;29;20027;-73
2022/04/05 08:27:54;;;;;;;8.27;4.07;;;7.00;67.20;;;;;;4956360;29;20038;-73
2022/04/05 08:30:20;;;;;;;9.27;3.90;;;7.10;67.30;;;;;;4956303;29;20111;-75
2022/04/05 08:32:48;;;;;;;10.65;5.35;;;7.20;67.20;;;;;;4956360;29;20023;-77
2022/04/05 08:35:16;;;;;;;9.40;4.32;;;7.30;67.20;;;;;;4956122;29;20469;-73
2022/04/05 08:37:42;;;;;;;8.00;4.22;;;7.30;67.30;;;;;;4956344;29;20096;-73
2022/04/05 08:40:10;;;;;;;8.15;4.30;;;7.20;68.60;;;;;;4938854;29;20031;-74
2022/04/05 08:42:38;;;;;;;7.55;4.20;;;7.30;67.40;;;;;;4955958;29;20487;-77
2022/04/05 08:45:08;;;;;;;7.35;4.45;;;7.20;67.50;;;;;;4956056;29;20027;-72
2022/04/05 08:47:55;;;;;;;7.90;4.70;;;7.10;67.80;;;;;;4938458;29;20122;-73
2022/04/05 08:50:29;;;;;;;6.75;4.25;;;7.10;67.70;;;;;;4956010;29;20023;-73
2022/04/05 08:52:56;;;;;;;9.25;3.90;;;7.10;68.40;;;;;;4955881;29;20560;-72
2022/04/05 08:55:22;;;;;;;7.75;4.10;;;7.20;67.80;;;;;;4955771;29;20031;-73
2022/04/05 08:57:48;;;;;;;8.13;4.43;;;7.20;67.50;;;;;;4954943;29;20026;-73
2022/04/05 09:00:19;;;;;;;8.68;4.38;;;7.20;67.50;;;;;;4955400;29;20023;-73
2022/04/05 09:03:04;;;;;;;7.93;4.18;;;7.20;67.60;;;;;;4938076;29;20043;-74
2022/04/05 09:05:31;;;;;;;8.95;4.13;;;7.30;67.50;;;;;;4955492;29;20360;-73
2022/04/05 09:08:16;;;;;;;8.57;4.40;;;7.40;67.40;;;;;;4955327;29;20110;-75
2022/04/05 09:10:43;;;;;;;9.18;5.13;;;7.40;66.90;;;;;;4938552;29;20028;-73
2022/04/05 09:13:11;;;;;;;10.52;5.05;;;7.50;66.90;;;;;;4955745;29;20062;-73
2022/04/05 09:15:37;;;;;;;9.10;4.32;;;7.60;67.40;;;;;;4937970;29;20031;-73
2022/04/05 09:18:09;;;;;;;;;;;7.70;66.50;;;;;;5152006;27;20393;-75
2022/04/05 09:20:44;;;;;;;;;;;7.70;66.40;;;;;;5152378;27;19953;-73
2022/04/05 09:23:27;;;;;;;11.90;4.65;;;7.80;65.80;;;;;;5151853;27;19903;-73
2022/04/05 09:26:05;;;;;;;11.05;4.70;;;7.70;66.40;;;;;;5151535;27;20153;-76
2022/04/05 09:28:38;;;;;;;9.40;4.85;;;7.70;66.20;;;;;;5151774;27;20557;-74
2022/04/05 09:31:06;;;;;;;8.35;4.60;;;7.90;65.90;;;;;;5132344;27;20023;-72
2022/04/05 09:33:34;;;;;;;10.00;4.90;;;8.00;64.90;;;;;;5132746;27;20053;-73
2022/04/05 09:36:33;;;;;;;7.38;4.32;;;8.10;64.70;;;;;;5132577;27;20019;-72
2022/04/05 09:39:19;;;;;;;7.43;4.20;;;7.90;65.00;;;;;;5151259;27;20030;-73
2022/04/05 09:41:47;;;;;;;8.73;4.28;;;7.90;65.30;;;;;;5151672;27;20482;-73
2022/04/05 09:44:23;;;;;;;6.88;5.10;;;7.80;65.60;;;;;;5150863;27;20577;-75
2022/04/05 09:46:52;;;;;;;10.20;4.35;;;7.80;66.30;;;;;;5150857;27;20019;-73
2022/04/05 09:49:29;;;;;;;6.38;4.78;;;7.80;66.40;;;;;;5150985;27;20026;-73
2022/04/05 09:51:55;;;;;;;8.02;4.78;;;7.90;66.20;;;;;;5131952;27;20038;-75
2022/04/05 09:54:29;;;;;;;5.72;4.45;;;7.90;66.10;;;;;;5150400;27;20023;-76
2022/04/05 09:57:03;;;;;;;7.67;4.43;;;8.00;65.80;;;;;;5150878;27;20042;-75
2022/04/05 09:59:46;;;;;;;10.13;3.80;;;8.10;65.80;;;;;;5151798;27;20026;-73
2022/04/05 10:02:17;;;;;;;9.27;4.43;;;8.30;65.50;;;;;;5151637;27;20037;-74
2022/04/05 10:05:18;;;;;;;7.95;4.65;;;8.40;64.70;;;;;;5150712;27;20030;-72
2022/04/05 10:07:44;;;;;;;8.45;4.18;;;8.50;64.50;;;;;;5095920;27;20039;-77
2022/04/05 10:10:09;;;;;;;6.13;3.95;;;8.60;64.40;;;;;;5150052;27;20039;-76
2022/04/05 10:12:35;;;;;;;4.85;3.35;;;8.80;63.90;;;;;;5150314;27;20026;-73
2022/04/05 10:15:01;;;;;;;7.35;4.32;;;8.90;63.80;;;;;;5131253;27;20018;-72
2022/04/05 10:17:28;;;;;;;6.10;4.00;;;8.90;63.70;;;;;;5150043;27;20469;-74
2022/04/05 10:19:58;;;;;;;8.55;4.07;;;8.80;63.50;;;;;;5132302;27;20023;-73
2022/04/05 10:22:25;;;;;;;6.10;3.95;;;8.90;63.90;;;;;;5150521;27;20023;-75
2022/04/05 10:24:52;;;;;;;5.43;4.25;;;9.00;63.20;;;;;;5150380;27;20029;-74
2022/04/05 10:27:23;;;;;;;6.97;3.90;;;9.00;63.00;;;;;;5149714;27;20015;-74
2022/04/05 10:30:02;;;;;;;5.38;3.72;;;9.10;63.10;;;;;;5136216;27;20019;-73
2022/04/05 10:32:43;;;;;;;8.60;3.80;;;9.20;62.80;;;;;;5136656;27;20467;-74
2022/04/05 10:35:10;;;;;;;5.53;3.83;;;9.50;62.30;;;;;;5136552;27;20140;-74
2022/04/05 10:37:38;;;;;;;7.38;4.30;;;9.70;61.90;;;;;;5136441;27;20039;-74
2022/04/05 10:40:05;;;;;;;7.47;4.10;;;9.80;61.10;;;;;;5135629;27;20129;-73
2022/04/05 10:42:41;;;;;;;6.03;4.45;;;9.70;61.10;;;;;;5136202;27;20022;-75
2022/04/05 10:45:19;;;;;;;6.85;4.25;;;9.60;61.90;;;;;;5136249;27;20038;-73
2022/04/05 10:48:18;;;;;;;5.82;3.78;;;9.50;62.00;;;;;;5136186;27;20098;-78
2022/04/05 10:51:00;;;;;;;10.32;4.47;;;9.60;62.10;;;;;;5116279;27;20433;-74
2022/04/05 10:53:38;;;;;;;6.55;4.07;;;9.60;61.30;;;;;;5136168;27;20080;-74
2022/04/05 10:56:03;;;;;;;7.30;4.53;;;9.50;62.50;;;;;;5116732;27;20027;-75
2022/04/05 10:58:34;;;;;;;5.43;3.90;;;9.40;61.90;;;;;;5135758;27;20032;-72
2022/04/05 11:01:20;;;;;;;7.90;4.10;;;9.40;62.50;;;;;;5135549;27;20069;-73
2022/04/05 11:04:14;;;;;;;6.35;4.15;;;9.50;62.30;;;;;;5116850;27;20176;-73
2022/04/05 11:06:59;;;;;;;6.03;4.22;;;9.50;62.00;;;;;;5116773;27;20039;-72
2022/04/05 11:09:48;;;;;;;10.52;4.25;;;9.60;61.90;;;;;;5134941;27;20531;-72
2022/04/05 11:12:30;;;;;;;7.22;3.80;;;9.70;61.80;;;;;;5116813;27;20015;-74
2022/04/05 11:15:05;;;;;;;7.82;3.92;;;9.80;62.90;;;;;;5135720;27;20359;-74
2022/04/05 11:17:32;;;;;;;4.23;2.47;;;9.70;63.70;;;;;;5135635;27;20035;-72
2022/04/05 11:19:59;;;;;;;6.90;3.65;;;9.70;63.60;;;;;;5135615;27;20289;-73
2022/04/05 11:22:33;;;;;;;8.27;4.47;;;9.70;64.00;;;;;;5135378;27;20034;-72
2022/04/05 11:25:13;;;;;;;5.47;4.10;;;9.80;62.90;;;;;;5134807;27;20056;-74
2022/04/05 11:27:46;;;;;;;8.43;3.88;;;9.80;62.20;;;;;;5135252;27;20098;-73
2022/04/05 11:30:25;;;;;;;6.40;3.80;;;10.00;62.40;;;;;;5135030;27;20031;-72
2022/04/05 11:33:06;;;;;;;9.45;4.03;;;10.20;61.70;;;;;;5134852;27;20344;-73
2022/04/05 11:35:59;;;;;;;4.70;3.50;;;10.40;61.00;;;;;;5134697;27;20027;-71
2022/04/05 11:38:29;;;;;;;5.88;3.20;;;10.50;60.50;;;;;;5135247;27;20031;-72
2022/04/05 11:41:05;;;;;;;8.85;3.38;;;10.50;61.50;;;;;;5133957;27;20054;-73
2022/04/05 11:43:41;;;;;;;5.47;4.05;;;10.60;61.00;;;;;;5116651;27;20025;-72
2022/04/05 11:46:11;;;;;;;6.80;3.80;;;10.80;60.10;;;;;;5135066;27;20444;-73
2022/04/05 11:48:48;;;;;;;8.40;3.67;;;10.80;60.40;;;;;;5134618;27;20506;-73
2022/04/05 11:51:17;;;;;;;10.48;3.92;;;10.70;59.80;;;;;;5116294;27;20030;-72
2022/04/05 11:53:44;;;;;;;7.53;3.15;;;10.60;60.80;;;;;;5116463;27;20024;-72
2022/04/05 11:56:23;;;;;;;6.78;3.38;;;10.40;62.70;;;;;;5134647;27;20059;-73
2022/04/05 11:58:58;;;;;;;6.90;3.28;;;10.40;63.20;;;;;;5134776;27;20106;-73
2022/04/05 12:01:25;;;;;;;7.10;3.25;;;10.30;64.50;;;;;;5134792;27;20157;-72
2022/04/05 12:03:54;;;;;;;6.07;3.38;;;10.30;65.20;;;;;;5134741;27;20324;-71
2022/04/05 12:06:27;;;;;;;6.25;3.38;;;10.30;66.20;;;;;;5134695;27;20075;-73
2022/04/05 12:08:54;;;;;;;4.82;2.50;;;10.30;66.70;;;;;;5134950;27;20027;-73
2022/04/05 12:11:24;;;;;;;4.70;1.80;;;10.20;69.40;;;;;;5134130;27;20026;-74
2022/04/05 12:14:01;;;;;;;4.13;2.03;;;10.30;71.30;;;;;;5134775;27;20081;-76
2022/04/05 12:16:29;;;;;;;4.78;2.75;;;10.30;71.60;;;;;;5116115;27;20117;-72
2022/04/05 12:18:56;;;;;;;3.70;1.65;;;10.30;71.80;;;;;;5134475;27;20111;-75
2022/04/05 12:21:24;;;;;;;6.90;2.70;;;10.30;71.70;;;;;;5134622;27;20016;-73
2022/04/05 12:23:50;;;;;;;3.55;1.60;;;10.30;72.50;;;;;;5134600;27;20023;-74
2022/04/05 12:26:24;;;;;;;4.50;1.98;;;10.30;72.70;;;;;;5134641;27;20023;-78
2022/04/05 12:28:59;;;;;;;2.92;1.70;;;10.40;72.10;;;;;;5116054;27;20019;-73
2022/04/05 12:31:28;;;;;;;6.10;1.60;;;10.40;72.20;;;;;;5134467;27;20075;-75
2022/04/05 12:33:59;;;;;;;3.60;1.75;;;10.40;72.20;;;;;;5134223;27;20050;-78
2022/04/05 12:36:32;;;;;;;1.85;1.52;;;10.30;72.70;;;;;;5134436;27;20035;-76
2022/04/05 12:38:57;;;;;;;2.25;1.40;;;10.30;73.20;;;;;;5134276;27;20104;-79
2022/04/05 12:41:23;;;;;;;2.58;1.10;;;10.20;73.70;;;;;;5134211;27;20074;-74
2022/04/05 12:44:05;;;;;;;1.55;1.13;;;10.20;73.90;;;;;;5133648;27;20020;-76
2022/04/05 12:46:49;;;;;;;1.40;1.20;;;10.10;74.00;;;;;;5134246;27;20023;-76
2022/04/05 12:49:31;;;;;;;1.85;1.10;;;10.20;74.10;;;;;;5134083;27;20015;-74
2022/04/05 12:52:09;;;;;;;1.40;0.90;;;10.30;73.80;;;;;;5134043;27;20019;-74
2022/04/05 12:54:36;;;;;;;0.90;0.90;;;10.30;73.60;;;;;;5134058;27;20541;-73
2022/04/05 12:57:19;;;;;;;1.30;1.00;;;10.20;74.70;;;;;;5133873;27;20031;-76